Terminal Aerodrome Forecast
Issued by NWS Portland, ME

Current Version | Previous Version | Text Only | Print | Product List | Glossary On
Versions: 1 2 3 4 5 6 7 8 9 10 11 12 13 14 15 16 17 18 19 20
000
FTUS41 KGYX 202013 AAB
TAFCON
TAF AMD
KCON 202013Z 2020/2118 33004KT P6SM SCT030
      TEMPO 2020/2024 BKN030
     FM210000 00000KT P6SM OVC030
     FM211200 00000KT P6SM OVC025=

USA.gov is the U.S. government's official web portal to all federal, state and local government web resources and services.